createdAt,value
2022-12-31T00:00:06.063Z,100.00
2022-12-31T00:02:32.743Z,99.29
2022-12-31T00:04:59.369Z,99.38
2022-12-31T00:07:26.020Z,98.65
2022-12-31T00:09:52.639Z,98.69
2022-12-31T00:12:19.288Z,99.02
2022-12-31T00:14:46.009Z,99.33
2022-12-31T00:17:12.664Z,98.99
2022-12-31T00:19:39.542Z,100.00
2022-12-31T00:22:06.181Z,98.37
2022-12-31T00:24:33.254Z,98.39
2022-12-31T00:26:59.844Z,98.13
2022-12-31T00:29:26.473Z,97.01
2022-12-31T00:31:54.320Z,97.38
2022-12-31T00:34:21.508Z,97.42
2022-12-31T00:36:48.125Z,98.64
2022-12-31T00:39:14.777Z,97.97
2022-12-31T00:41:43.924Z,98.42
2022-12-31T00:44:13.788Z,98.40
2022-12-31T00:49:07.115Z,100.00
2022-12-31T00:51:33.866Z,99.62
2022-12-31T00:54:00.957Z,99.54
2022-12-31T00:56:29.601Z,98.43
2022-12-31T00:58:56.821Z,98.60
2022-12-31T01:01:35.475Z,98.78
2022-12-31T01:04:09.206Z,99.18
2022-12-31T01:06:36.612Z,98.58
2022-12-31T01:09:03.910Z,98.40
2022-12-31T01:11:31.067Z,98.39
2022-12-31T01:14:00.712Z,97.83
2022-12-31T01:16:31.654Z,99.01
2022-12-31T01:19:00.352Z,99.56
2022-12-31T01:21:27.782Z,99.86
2022-12-31T01:23:54.688Z,99.83
2022-12-31T01:26:21.724Z,100.00
2022-12-31T01:28:48.394Z,100.00
2022-12-31T01:31:17.221Z,100.00
2022-12-31T01:33:44.410Z,100.00
2022-12-31T01:36:26.482Z,100.00
2022-12-31T01:38:55.555Z,100.00
2022-12-31T01:41:25.581Z,100.00
2022-12-31T01:43:56.551Z,100.00
2022-12-31T01:46:43.923Z,100.00
2022-12-31T01:49:21.356Z,100.00
2022-12-31T01:51:56.012Z,100.00
2022-12-31T01:54:25.741Z,100.00
2022-12-31T01:56:53.602Z,100.00
2022-12-31T01:59:23.290Z,100.00
2022-12-31T02:01:53.892Z,100.00
2022-12-31T02:04:24.016Z,100.00
2022-12-31T02:06:56.334Z,100.00
2022-12-31T02:09:23.072Z,100.00
2022-12-31T02:11:50.395Z,100.00
2022-12-31T02:14:25.364Z,100.00
2022-12-31T02:17:10.432Z,100.00
2022-12-31T02:20:01.024Z,100.00
2022-12-31T02:23:08.760Z,100.00
2022-12-31T02:25:47.943Z,100.00
2022-12-31T02:28:17.587Z,100.00
2022-12-31T02:30:53.410Z,100.00
2022-12-31T02:33:25.923Z,100.00
2022-12-31T02:36:09.752Z,100.00
2022-12-31T02:38:42.480Z,100.00
2022-12-31T02:41:36.393Z,100.00
2022-12-31T02:44:23.418Z,100.00
2022-12-31T02:47:04.104Z,100.00
2022-12-31T02:49:39.463Z,100.00
2022-12-31T02:52:15.610Z,100.00
2022-12-31T02:54:57.523Z,100.00
2022-12-31T02:57:39.910Z,100.00
2022-12-31T03:00:29.547Z,100.00
2022-12-31T03:02:59.273Z,100.00
2022-12-31T03:05:30.175Z,100.00
2022-12-31T03:07:56.812Z,100.00
2022-12-31T03:10:23.867Z,100.00
2022-12-31T03:12:51.453Z,100.00
2022-12-31T03:15:26.138Z,100.00
2022-12-31T03:17:56.909Z,100.00
2022-12-31T03:21:08.034Z,100.00
2022-12-31T03:23:39.330Z,100.00
2022-12-31T03:26:10.663Z,100.00
2022-12-31T03:28:39.514Z,100.00
2022-12-31T03:31:06.843Z,100.00
2022-12-31T03:33:39.379Z,100.00
2022-12-31T03:36:12.471Z,100.00
2022-12-31T03:38:39.883Z,100.00
2022-12-31T03:41:06.580Z,100.00
2022-12-31T03:43:33.161Z,100.00
2022-12-31T03:46:03.057Z,100.00
2022-12-31T03:48:29.700Z,100.00
2022-12-31T03:50:56.368Z,100.00
2022-12-31T03:53:23.211Z,100.00
2022-12-31T03:55:53.695Z,100.00
2022-12-31T03:58:20.833Z,100.00
2022-12-31T04:00:47.496Z,100.00
2022-12-31T04:03:14.244Z,100.00
2022-12-31T04:05:41.168Z,100.00
2022-12-31T04:08:07.875Z,100.00
2022-12-31T04:10:34.712Z,100.00
2022-12-31T04:13:04.299Z,100.00
2022-12-31T04:15:30.989Z,100.00
2022-12-31T04:17:57.611Z,100.00
2022-12-31T04:20:24.296Z,100.00
2022-12-31T04:22:50.953Z,100.00
2022-12-31T04:25:17.716Z,100.00
2022-12-31T04:27:45.491Z,100.00
2022-12-31T04:30:14.077Z,100.00
2022-12-31T04:32:42.758Z,100.00
2022-12-31T04:35:11.640Z,100.00
2022-12-31T04:37:38.438Z,100.00
2022-12-31T04:40:07.073Z,100.00
2022-12-31T04:42:34.618Z,100.00
2022-12-31T04:45:01.308Z,100.00
2022-12-31T04:47:28.078Z,100.00
2022-12-31T04:49:54.770Z,100.00
2022-12-31T04:52:21.859Z,100.00
2022-12-31T04:54:48.594Z,100.00
2022-12-31T04:57:15.269Z,100.00
2022-12-31T04:59:41.935Z,100.00
2022-12-31T05:02:08.730Z,100.00
2022-12-31T05:04:35.496Z,100.00
2022-12-31T05:07:02.110Z,100.00
2022-12-31T05:09:28.937Z,100.00
2022-12-31T05:11:55.580Z,100.00
2022-12-31T05:14:22.548Z,100.00
2022-12-31T05:16:49.238Z,100.00
2022-12-31T05:19:16.277Z,100.00
2022-12-31T05:21:43.173Z,100.00
2022-12-31T05:24:09.891Z,100.00
2022-12-31T05:26:36.541Z,100.00
2022-12-31T05:29:03.128Z,100.00
2022-12-31T05:31:29.791Z,100.00
2022-12-31T05:33:56.731Z,100.00
2022-12-31T05:36:23.324Z,100.00
2022-12-31T05:38:49.982Z,100.00
2022-12-31T05:41:16.654Z,100.00
2022-12-31T05:43:43.279Z,100.00
2022-12-31T05:46:09.951Z,100.00
2022-12-31T05:48:36.561Z,100.00
2022-12-31T05:51:03.239Z,100.00
2022-12-31T05:53:29.962Z,100.00
2022-12-31T05:55:56.630Z,100.00
2022-12-31T05:58:23.274Z,100.00
2022-12-31T06:00:51.591Z,100.00
2022-12-31T06:03:18.241Z,100.00
2022-12-31T06:05:45.015Z,100.00
2022-12-31T06:08:12.273Z,100.00
2022-12-31T06:10:39.823Z,100.00
2022-12-31T06:13:06.781Z,100.00
2022-12-31T06:15:38.886Z,100.00
2022-12-31T06:18:05.739Z,100.00
2022-12-31T06:20:32.395Z,100.00
2022-12-31T06:22:59.885Z,100.00
2022-12-31T06:25:26.483Z,100.00
2022-12-31T06:27:53.087Z,100.00
2022-12-31T06:30:19.855Z,100.00
2022-12-31T06:32:46.477Z,100.00
2022-12-31T06:35:13.300Z,100.00
2022-12-31T06:37:40.159Z,100.00
2022-12-31T06:40:07.590Z,100.00
2022-12-31T06:42:34.252Z,100.00
2022-12-31T06:45:00.845Z,100.00
2022-12-31T06:47:28.871Z,100.00
2022-12-31T06:49:55.630Z,100.00
2022-12-31T06:52:22.289Z,100.00
2022-12-31T06:54:49.238Z,100.00
2022-12-31T06:57:16.178Z,100.00
2022-12-31T06:59:43.225Z,99.79
2022-12-31T07:02:28.506Z,99.82
2022-12-31T07:05:26.828Z,100.00
2022-12-31T07:08:45.483Z,98.60
2022-12-31T07:11:12.192Z,98.72
2022-12-31T07:14:09.427Z,98.85
2022-12-31T07:17:09.561Z,98.28
2022-12-31T07:19:39.042Z,97.84
2022-12-31T07:22:12.080Z,97.45
2022-12-31T07:24:38.995Z,96.99
2022-12-31T07:27:30.359Z,97.37
2022-12-31T07:29:56.964Z,97.33
2022-12-31T07:32:30.696Z,97.12
2022-12-31T07:35:12.600Z,97.86
2022-12-31T07:38:12.045Z,97.94
2022-12-31T07:40:55.930Z,98.02
2022-12-31T07:43:40.240Z,96.85
2022-12-31T07:46:40.962Z,96.49
2022-12-31T07:49:11.713Z,95.70
2022-12-31T07:51:39.010Z,95.48
2022-12-31T07:54:11.867Z,96.94
2022-12-31T07:56:40.765Z,95.75
2022-12-31T07:59:24.644Z,95.58
2022-12-31T08:02:00.787Z,94.23
2022-12-31T08:04:40.345Z,95.32
2022-12-31T08:07:30.107Z,94.58
2022-12-31T08:10:15.607Z,95.42
2022-12-31T08:12:46.864Z,94.81
2022-12-31T08:15:16.856Z,94.65
2022-12-31T08:17:44.511Z,94.65
2022-12-31T08:20:16.198Z,93.88
2022-12-31T08:23:16.558Z,92.19
2022-12-31T08:26:15.758Z,92.03
2022-12-31T08:28:42.349Z,91.85
2022-12-31T08:31:17.016Z,92.65
2022-12-31T08:34:05.834Z,90.76
2022-12-31T08:36:41.819Z,90.95
2022-12-31T08:39:24.140Z,90.57
2022-12-31T08:41:55.888Z,91.03
2022-12-31T08:44:27.147Z,90.77
2022-12-31T08:47:03.183Z,90.24
2022-12-31T08:49:32.452Z,90.80
2022-12-31T08:52:00.323Z,90.66
2022-12-31T08:54:27.818Z,90.13
2022-12-31T08:57:15.120Z,89.84
2022-12-31T09:00:14.135Z,89.78
2022-12-31T09:02:59.597Z,88.10
2022-12-31T09:05:35.147Z,88.56
2022-12-31T09:08:36.927Z,87.84
2022-12-31T09:11:26.890Z,87.50
2022-12-31T09:14:04.592Z,86.78
2022-12-31T09:16:49.771Z,86.64
2022-12-31T09:19:16.564Z,86.22
2022-12-31T09:21:45.149Z,87.43
2022-12-31T09:24:13.907Z,85.43
2022-12-31T09:26:45.062Z,86.25
2022-12-31T09:29:34.365Z,86.76
2022-12-31T09:32:29.609Z,85.24
2022-12-31T09:35:14.571Z,85.11
2022-12-31T09:37:47.032Z,85.11
2022-12-31T09:40:16.703Z,84.63
2022-12-31T09:43:08.421Z,83.60
2022-12-31T09:45:53.423Z,84.18
2022-12-31T09:48:37.922Z,83.43
2022-12-31T09:51:25.219Z,83.82
2022-12-31T09:54:24.683Z,83.03
2022-12-31T09:57:12.448Z,84.02
2022-12-31T09:59:51.468Z,83.29
2022-12-31T10:02:42.813Z,81.21
2022-12-31T10:05:21.586Z,81.91
2022-12-31T10:08:20.065Z,81.59
2022-12-31T10:10:53.606Z,79.50
2022-12-31T10:13:46.332Z,79.74
2022-12-31T10:16:37.854Z,79.95
2022-12-31T10:19:25.384Z,79.06
2022-12-31T10:22:29.615Z,78.61
2022-12-31T10:25:38.700Z,77.79
2022-12-31T10:28:38.112Z,78.01
2022-12-31T10:31:23.577Z,78.03
2022-12-31T10:34:14.625Z,77.56
2022-12-31T10:36:53.990Z,77.58
2022-12-31T10:39:29.731Z,77.68
2022-12-31T10:42:25.805Z,77.34
2022-12-31T10:45:42.273Z,77.35
2022-12-31T10:48:30.500Z,78.22
2022-12-31T10:51:24.653Z,79.19
2022-12-31T10:54:13.996Z,79.13
2022-12-31T10:57:18.154Z,80.11
2022-12-31T11:00:20.942Z,80.25
2022-12-31T11:03:09.165Z,80.67
2022-12-31T11:05:54.598Z,80.46
2022-12-31T11:08:36.418Z,80.29
2022-12-31T11:11:29.820Z,79.66
2022-12-31T11:14:24.831Z,80.30
2022-12-31T11:17:14.370Z,80.12
2022-12-31T11:19:56.170Z,80.26
2022-12-31T11:22:25.702Z,80.37
2022-12-31T11:25:11.346Z,79.61
2022-12-31T11:28:00.056Z,80.33
2022-12-31T11:30:38.539Z,80.15
2022-12-31T11:33:20.794Z,80.73
2022-12-31T11:36:12.723Z,79.72
2022-12-31T11:39:27.370Z,80.82
2022-12-31T11:42:28.588Z,80.75
2022-12-31T11:45:04.773Z,80.80
2022-12-31T11:51:24.988Z,81.12
2022-12-31T11:54:31.016Z,80.47
2022-12-31T11:57:37.544Z,79.91
2022-12-31T12:00:22.676Z,79.98
2022-12-31T12:02:58.431Z,81.00
2022-12-31T12:05:29.005Z,81.18
2022-12-31T12:07:57.624Z,80.74
2022-12-31T12:10:47.627Z,79.80
2022-12-31T12:13:27.899Z,79.30
2022-12-31T12:15:59.333Z,79.70
2022-12-31T12:18:48.758Z,78.08
2022-12-31T12:21:24.483Z,77.58
2022-12-31T12:24:05.892Z,77.11
2022-12-31T12:26:40.008Z,75.88
2022-12-31T12:29:16.898Z,75.56
2022-12-31T12:32:04.723Z,76.13
2022-12-31T12:34:39.526Z,75.76
2022-12-31T12:37:33.142Z,75.10
2022-12-31T12:40:33.419Z,74.80
2022-12-31T12:43:02.669Z,74.52
2022-12-31T12:45:45.102Z,74.49
2022-12-31T12:48:29.980Z,74.67
2022-12-31T12:50:59.430Z,75.01
2022-12-31T12:53:43.795Z,74.97
2022-12-31T12:56:40.220Z,74.46
2022-12-31T12:59:32.451Z,75.26
2022-12-31T13:02:26.960Z,75.57
2022-12-31T13:05:12.804Z,75.62
2022-12-31T13:07:45.675Z,75.59
2022-12-31T13:11:01.031Z,75.49
2022-12-31T13:13:48.322Z,75.95
2022-12-31T13:16:40.699Z,75.80
2022-12-31T13:19:16.949Z,75.57
2022-12-31T13:22:14.075Z,76.15
2022-12-31T13:24:55.214Z,76.51
2022-12-31T13:27:35.300Z,76.26
2022-12-31T13:30:13.861Z,76.37
2022-12-31T13:32:45.254Z,75.86
2022-12-31T13:35:38.192Z,76.57
2022-12-31T13:38:23.618Z,77.01
2022-12-31T13:41:06.645Z,77.65
2022-12-31T13:43:39.514Z,76.77
2022-12-31T13:46:15.876Z,77.35
2022-12-31T13:49:00.332Z,77.42
2022-12-31T13:51:44.923Z,77.51
2022-12-31T13:54:40.077Z,77.47
2022-12-31T13:57:24.126Z,77.73
2022-12-31T13:59:58.847Z,77.23
2022-12-31T14:02:48.822Z,77.80
2022-12-31T14:05:34.690Z,77.80
2022-12-31T14:08:03.790Z,78.11
2022-12-31T14:10:36.212Z,78.49
2022-12-31T14:13:02.816Z,78.44
2022-12-31T14:15:38.706Z,78.16
2022-12-31T14:18:23.877Z,78.37
2022-12-31T14:21:00.237Z,79.19
2022-12-31T14:23:48.215Z,79.27
2022-12-31T14:26:30.293Z,78.67
2022-12-31T14:29:05.057Z,78.87
2022-12-31T14:31:58.351Z,79.11
2022-12-31T14:35:00.251Z,79.27
2022-12-31T14:37:34.488Z,79.50
2022-12-31T14:40:28.800Z,79.92
2022-12-31T14:43:03.319Z,79.12
2022-12-31T14:45:50.461Z,79.14
2022-12-31T14:48:33.017Z,79.12
2022-12-31T14:51:02.379Z,79.12
2022-12-31T14:53:30.133Z,79.17
2022-12-31T14:56:04.439Z,79.53
2022-12-31T14:58:34.375Z,79.58
2022-12-31T15:01:22.466Z,79.98
2022-12-31T15:03:52.079Z,79.62
2022-12-31T15:06:24.546Z,79.85
2022-12-31T15:09:12.886Z,80.47
2022-12-31T15:11:46.235Z,80.37
2022-12-31T15:14:21.774Z,79.84
2022-12-31T15:16:57.355Z,80.01
2022-12-31T15:19:58.209Z,79.55
2022-12-31T15:22:24.732Z,78.42
2022-12-31T15:24:51.490Z,78.56
2022-12-31T15:27:40.818Z,78.66
2022-12-31T15:30:08.184Z,79.00
2022-12-31T15:32:36.483Z,78.60
2022-12-31T15:35:25.533Z,78.63
2022-12-31T15:38:29.474Z,77.53
2022-12-31T15:40:56.647Z,78.04
2022-12-31T15:43:23.565Z,78.21
2022-12-31T15:45:57.928Z,78.41
2022-12-31T15:48:29.487Z,78.08
2022-12-31T15:50:58.778Z,77.98
2022-12-31T15:53:42.918Z,78.54
2022-12-31T15:56:19.130Z,79.11
2022-12-31T15:58:47.555Z,78.96
2022-12-31T16:01:20.296Z,79.86
2022-12-31T16:04:05.607Z,79.92
2022-12-31T16:06:38.894Z,80.37
2022-12-31T16:09:18.605Z,81.38
2022-12-31T16:11:45.511Z,80.88
2022-12-31T16:14:36.558Z,81.66
2022-12-31T16:17:04.908Z,80.96
2022-12-31T16:19:41.896Z,80.90
2022-12-31T16:22:15.267Z,81.21
2022-12-31T16:25:02.848Z,80.85
2022-12-31T16:27:30.419Z,80.65
2022-12-31T16:30:07.635Z,79.79
2022-12-31T16:32:37.028Z,79.25
2022-12-31T16:35:10.064Z,79.98
2022-12-31T16:37:41.720Z,80.19
2022-12-31T16:40:18.928Z,80.18
2022-12-31T16:42:47.677Z,80.18
2022-12-31T16:45:31.008Z,79.52
2022-12-31T16:48:11.128Z,79.96
2022-12-31T16:50:48.876Z,81.16
2022-12-31T16:53:20.040Z,82.54
2022-12-31T16:55:54.895Z,81.88
2022-12-31T16:58:28.616Z,81.26
2022-12-31T17:01:00.876Z,82.13
2022-12-31T17:03:29.852Z,82.35
2022-12-31T17:06:14.438Z,81.54
2022-12-31T17:09:05.264Z,81.38
2022-12-31T17:11:41.821Z,80.16
2022-12-31T17:14:08.435Z,80.23
2022-12-31T17:16:38.359Z,79.13
2022-12-31T17:19:05.111Z,77.69
2022-12-31T17:21:32.438Z,77.89
2022-12-31T17:24:06.522Z,77.62
2022-12-31T17:26:36.989Z,78.10
2022-12-31T17:29:05.944Z,79.27
2022-12-31T17:31:43.120Z,79.31
2022-12-31T17:34:12.659Z,80.21
2022-12-31T17:36:56.179Z,80.50
2022-12-31T17:39:24.037Z,80.81
2022-12-31T17:41:53.366Z,80.23
2022-12-31T17:44:22.780Z,79.19
2022-12-31T17:46:53.195Z,78.40
2022-12-31T17:49:27.041Z,77.74
2022-12-31T17:51:53.738Z,77.95
2022-12-31T17:54:20.357Z,77.39
2022-12-31T17:56:47.442Z,78.15
2022-12-31T17:59:20.803Z,78.03
2022-12-31T18:01:48.401Z,78.16
2022-12-31T18:04:17.043Z,78.84
2022-12-31T18:06:44.641Z,78.10
2022-12-31T18:09:11.312Z,78.98
2022-12-31T18:11:40.143Z,78.23
2022-12-31T18:14:07.307Z,78.82
2022-12-31T18:16:34.209Z,79.40
2022-12-31T18:19:02.328Z,79.70
2022-12-31T18:21:34.155Z,80.14
2022-12-31T18:26:29.315Z,80.77
2022-12-31T18:29:02.632Z,80.41
2022-12-31T18:31:30.853Z,80.62
2022-12-31T18:33:58.886Z,80.50
2022-12-31T18:36:27.577Z,80.44
2022-12-31T18:38:54.250Z,79.47
2022-12-31T18:41:23.668Z,78.88
2022-12-31T18:43:50.796Z,78.74
2022-12-31T18:46:19.805Z,77.86
2022-12-31T18:48:46.543Z,78.20
2022-12-31T18:51:15.933Z,77.61
2022-12-31T18:53:42.740Z,76.66
2022-12-31T18:56:12.864Z,76.35
2022-12-31T18:58:39.754Z,75.62
2022-12-31T19:01:22.398Z,74.64
2022-12-31T19:03:49.054Z,75.80
2022-12-31T19:06:15.723Z,76.20
2022-12-31T19:08:42.396Z,74.44
2022-12-31T19:11:13.918Z,74.78
2022-12-31T19:13:40.713Z,74.42
2022-12-31T19:16:08.854Z,74.31
2022-12-31T19:18:35.553Z,74.05
2022-12-31T19:21:02.876Z,74.10
2022-12-31T19:23:29.494Z,74.49
2022-12-31T19:25:56.154Z,73.63
2022-12-31T19:28:25.590Z,74.57
2022-12-31T19:30:53.243Z,75.52
2022-12-31T19:33:20.198Z,75.09
2022-12-31T19:35:47.339Z,74.66
2022-12-31T19:38:20.715Z,73.78
2022-12-31T19:40:48.553Z,73.44
2022-12-31T19:43:16.887Z,74.69
2022-12-31T19:45:44.848Z,74.03
2022-12-31T19:48:16.768Z,74.77
2022-12-31T19:50:46.720Z,72.88
2022-12-31T19:53:17.363Z,73.06
2022-12-31T19:55:43.910Z,71.38
2022-12-31T19:58:25.499Z,71.65
2022-12-31T20:00:58.238Z,72.40
2022-12-31T20:03:27.851Z,72.08
2022-12-31T20:06:10.483Z,72.09
2022-12-31T20:08:39.370Z,72.63
2022-12-31T20:11:32.121Z,72.68
2022-12-31T20:13:58.924Z,71.26
2022-12-31T20:16:26.872Z,71.52
2022-12-31T20:18:53.780Z,72.22
2022-12-31T20:21:26.921Z,72.96
2022-12-31T20:23:54.351Z,72.49
2022-12-31T20:26:23.360Z,71.36
2022-12-31T20:28:50.981Z,71.11
2022-12-31T20:31:21.069Z,70.86
2022-12-31T20:33:48.119Z,71.30
2022-12-31T20:36:16.557Z,71.21
2022-12-31T20:38:43.507Z,69.98
2022-12-31T20:41:17.803Z,68.61
2022-12-31T20:43:45.170Z,69.84
2022-12-31T20:46:18.875Z,69.13
2022-12-31T20:48:46.881Z,68.11
2022-12-31T20:51:15.205Z,68.07
2022-12-31T20:53:47.749Z,68.92
2022-12-31T20:56:15.620Z,68.86
2022-12-31T20:58:42.298Z,68.71
2022-12-31T21:01:10.867Z,68.38
2022-12-31T21:04:04.766Z,68.66
2022-12-31T21:06:26.170Z,68.58
2022-12-31T21:08:53.968Z,68.32
2022-12-31T21:11:39.496Z,68.36
2022-12-31T21:14:06.231Z,67.29
2022-12-31T21:16:33.072Z,66.49
2022-12-31T21:18:59.849Z,65.98
2022-12-31T21:21:26.536Z,65.71
2022-12-31T21:23:53.500Z,64.36
2022-12-31T21:26:20.227Z,64.79
2022-12-31T21:28:46.885Z,66.15
2022-12-31T21:31:14.904Z,66.62
2022-12-31T21:33:46.211Z,68.95
2022-12-31T21:36:13.446Z,65.36
2022-12-31T21:38:40.410Z,64.71
2022-12-31T21:41:09.396Z,63.80
2022-12-31T21:43:36.139Z,64.05
2022-12-31T21:46:07.383Z,65.04
2022-12-31T21:48:34.116Z,64.63
2022-12-31T21:51:15.799Z,63.34
2022-12-31T21:53:42.711Z,63.94
2022-12-31T21:56:11.035Z,61.25
2022-12-31T21:58:43.563Z,61.00
2022-12-31T22:01:40.373Z,61.41
2022-12-31T22:04:22.018Z,60.49
2022-12-31T22:06:54.621Z,59.53
2022-12-31T22:09:21.196Z,60.47
2022-12-31T22:11:47.973Z,58.53
2022-12-31T22:14:14.624Z,59.06
2022-12-31T22:16:41.267Z,58.29
2022-12-31T22:19:08.009Z,58.61
2022-12-31T22:21:34.592Z,58.09
2022-12-31T22:24:03.651Z,57.17
2022-12-31T22:26:30.268Z,57.01
2022-12-31T22:28:59.448Z,56.05
2022-12-31T22:31:30.002Z,55.31
2022-12-31T22:33:57.829Z,55.53
2022-12-31T22:36:24.574Z,54.84
2022-12-31T22:38:57.178Z,55.18
2022-12-31T22:41:26.042Z,54.67
2022-12-31T22:44:02.250Z,54.55
2022-12-31T22:46:31.475Z,54.93
2022-12-31T22:48:59.540Z,54.04
2022-12-31T22:51:54.973Z,54.71
2022-12-31T22:54:14.618Z,54.35
2022-12-31T22:56:41.426Z,54.93
2022-12-31T22:59:09.766Z,54.96
2022-12-31T23:01:37.099Z,55.21
2022-12-31T23:04:04.450Z,55.76
2022-12-31T23:06:31.229Z,55.82
2022-12-31T23:09:17.107Z,56.62
2022-12-31T23:11:43.796Z,56.15
2022-12-31T23:14:35.261Z,56.65
2022-12-31T23:17:31.589Z,56.87
2022-12-31T23:20:19.187Z,56.92
2022-12-31T23:23:07.451Z,56.82
2022-12-31T23:25:43.621Z,57.80
2022-12-31T23:28:16.002Z,57.75
2022-12-31T23:30:43.702Z,58.87
2022-12-31T23:33:19.132Z,58.90
2022-12-31T23:35:46.537Z,59.30
2022-12-31T23:38:16.571Z,59.36
2022-12-31T23:40:43.640Z,59.76
2022-12-31T23:43:19.750Z,60.02
2022-12-31T23:45:46.458Z,60.87
2022-12-31T23:48:13.113Z,61.76
2022-12-31T23:50:40.561Z,61.71
2022-12-31T23:53:07.235Z,62.12
2022-12-31T23:55:33.876Z,62.89
2022-12-31T23:58:00.529Z,61.82
